Latest Weather Observations for Mount Boyce

IDN60901

Issued at 10:05 am EST Monday 22 September 2014 (issued every 10 minutes, with the page automatically refreshed every 10 minutes)

About weather observations | Map of Sydney area stations | Latest observations for Sydney area | Other Formats
Station Details ID: 063292 Name: MOUNT BOYCE AWS Lat: -33.62 Lon: 150.27 Height: 1080.0 m
Data from the previous 72 hours. | See also: Recent months at Mount Boyce
Date/Time
EST
Tmp

°C
App
Tmp
°C
Dew
Point
°C
Rel
Hum
%
Delta-T

°C
Wind Press
QNH
hPa
Press
MSL
hPa
Rain
since
9 am
mm
Dir
 
Spd
km/h
Gust
km/h
Spd
kts
Gust
kts
22/10:00am 12.0 10.1 4.7 61 3.5 E 4 11 2 6 - - 0.0
22/09:30am 10.9 8.3 4.1 63 3.2 NNE 7 11 4 6 - - 0.0
22/09:00am 8.4 5.2 3.3 70 2.3 NNE 9 17 5 9 - - 0.0
22/08:30am 9.0 6.4 4.2 72 2.3 NNE 7 13 4 7 - - 0.0
22/08:00am 8.0 5.4 4.0 76 1.9 NE 7 13 4 7 - - 0.0
22/07:30am 6.5 4.9 4.5 87 0.9 E 2 9 1 5 - - 0.0
22/07:13am 6.3 4.0 4.8 90 0.7 NE 6 11 3 6 - - 0.0
22/07:00am 5.8 4.7 5.1 95 0.3 CALM 0 7 0 4 - - 0.0
22/06:30am 5.6 4.5 5.2 97 0.2 CALM 0 0 0 0 - - 0.0
22/06:00am 5.1 3.5 4.7 97 0.2 NE 2 7 1 4 - - 0.0
22/05:44am 4.7 2.3 4.1 96 0.3 NE 6 7 3 4 - - 0.0
22/05:40am 4.6 2.1 4.0 96 0.3 NE 6 7 3 4 - - 0.0
22/05:38am 4.6 2.1 4.0 96 0.3 NE 6 7 3 4 - - 0.0
22/05:30am 4.8 2.8 4.4 97 0.2 NE 4 7 2 4 - - 0.0
22/05:00am 5.0 3.8 4.6 97 0.2 CALM 0 0 0 0 - - 0.0
22/04:30am 4.9 3.6 4.3 96 0.3 CALM 0 0 0 0 - - 0.0
22/04:16am 4.9 3.6 4.3 96 0.3 CALM 0 0 0 0 - - 0.0
22/04:04am 4.7 3.4 4.1 96 0.3 CALM 0 0 0 0 - - 0.0
22/04:03am 4.7 3.4 4.1 96 0.3 CALM 0 0 0 0 - - 0.0
22/04:00am 4.8 3.5 4.2 96 0.3 ENE 0 0 0 0 - - 0.0
22/03:39am 5.3 3.7 4.7 96 0.3 ENE 2 7 1 4 - - 0.0
22/03:30am 5.2 4.0 4.6 96 0.3 CALM 0 4 0 2 - - 0.0
22/03:00am 5.1 3.1 4.5 96 0.3 ENE 4 9 2 5 - - 0.0
22/02:56am 5.1 3.5 4.5 96 0.3 ENE 2 7 1 4 - - 0.0
22/02:47am 5.3 3.0 4.7 96 0.3 NE 6 7 3 4 - - 0.0
22/02:30am 5.4 3.1 4.8 96 0.3 ENE 6 7 3 4 - - 0.0
22/02:29am 5.4 3.1 4.8 96 0.3 ENE 6 7 3 4 - - 0.0
22/02:00am 5.5 3.0 4.9 96 0.3 ENE 7 9 4 5 - - 0.0
22/01:32am 5.2 3.6 4.3 94 0.4 E 2 9 1 5 - - 0.0
22/01:30am 5.1 3.4 4.2 94 0.4 E 2 7 1 4 - - 0.0
22/01:06am 5.2 3.9 4.0 92 0.5 CALM 0 0 0 0 - - 0.0
22/01:00am 5.3 3.6 4.1 92 0.5 ENE 2 6 1 3 - - 0.0
22/12:30am 5.8 3.5 4.6 92 0.6 ENE 6 9 3 5 - - 0.0
22/12:00am 6.5 3.8 5.5 93 0.5 ENE 9 13 5 7 - - 0.0
 
Date/Time
EST
Tmp

°C
App
Tmp
°C
Dew
Point
°C
Rel
Hum
%
Delta-T

°C
Wind Press
QNH
hPa
Press
MSL
hPa
Rain
since
9 am
mm
Dir
 
Spd
km/h
Gust
km/h
Spd
kts
Gust
kts
21/11:30pm 6.8 5.1 5.7 93 0.5 ENE 4 11 2 6 - - 0.0
21/11:00pm 7.2 4.9 5.8 91 0.7 ENE 7 13 4 7 - - 0.0
21/10:30pm 7.2 5.0 6.1 93 0.5 ENE 7 13 4 7 - - 0.0
21/10:06pm 7.3 4.7 6.2 93 0.5 ENE 9 17 5 9 - - 0.0
21/10:00pm 7.3 4.7 6.2 93 0.5 ENE 9 15 5 8 - - 0.0
21/09:48pm 7.3 4.7 6.2 93 0.5 ENE 9 15 5 8 - - 0.0
21/09:30pm 7.3 4.3 6.1 92 0.6 ENE 11 24 6 13 - - 0.0
21/09:00pm 7.4 4.4 6.0 91 0.7 ENE 11 19 6 10 - - 0.0
21/08:30pm 7.6 4.2 6.1 90 0.7 ENE 13 26 7 14 - - 0.0
21/08:00pm 8.0 4.6 6.1 88 0.9 ENE 13 20 7 11 - - 0.0
21/07:30pm 8.2 4.5 6.2 87 1.0 ENE 15 24 8 13 - - 0.0
21/07:05pm 8.0 4.2 5.8 86 1.1 ENE 15 24 8 13 - - 0.0
21/07:00pm 7.9 4.4 5.5 85 1.1 ENE 13 20 7 11 - - 0.0
21/06:30pm 8.5 4.8 4.7 77 1.8 ENE 13 24 7 13 - - 0.0
21/06:00pm 9.6 6.3 4.8 72 2.3 ENE 11 26 6 14 - - 0.0
21/05:30pm 11.7 8.5 5.3 65 3.1 E 11 19 6 10 - - 0.0
21/05:00pm 13.4 10.5 4.6 55 4.3 E 9 19 5 10 - - 0.0
21/04:30pm 14.8 12.1 3.9 48 5.3 ESE 7 13 4 7 - - 0.0
21/04:00pm 15.7 13.1 3.2 43 6.0 SSE 6 11 3 6 - - 0.0
21/03:30pm 14.8 10.9 1.3 40 6.2 W 11 19 6 10 - - 0.0
21/03:00pm 16.2 13.8 4.3 45 5.9 SSE 6 13 3 7 - - 0.0
21/02:30pm 15.1 11.3 2.0 41 6.2 W 11 17 6 9 - - 0.0
21/02:00pm 13.9 11.7 3.1 48 5.1 NE 4 9 2 5 - - 0.0
21/01:30pm 13.8 11.3 3.6 50 4.9 NNW 6 13 3 7 - - 0.0
21/01:00pm 13.0 10.4 3.4 52 4.6 N 6 11 3 6 - - 0.0
21/12:30pm 12.1 9.6 3.9 57 3.9 NE 6 11 3 6 - - 0.0
21/12:00pm 13.1 11.1 4.3 55 4.3 NW 4 11 2 6 - - 0.0
21/11:30am 12.3 9.3 2.2 50 4.7 E 7 13 4 7 - - 0.0
21/11:00am 12.2 9.5 3.9 57 4.0 ENE 7 13 4 7 - - 0.0
21/10:30am 11.7 8.8 4.9 63 3.3 E 9 17 5 9 - - 0.0
21/10:00am 10.1 7.6 4.7 69 2.6 ENE 7 15 4 8 - - 0.0
21/09:57am 10.4 8.2 5.2 70 2.5 ENE 6 15 3 8 - - 0.0
21/09:30am 10.0 7.1 4.4 68 2.7 ENE 9 19 5 10 - - 0.0
21/09:09am 9.9 7.1 5.1 72 2.3 ENE 9 17 5 9 - - 0.0
21/09:02am 9.6 6.3 4.8 72 2.3 ENE 11 17 6 9 - - 0.0
21/09:00am 9.4 6.1 4.4 71 2.4 ENE 11 17 6 9 - - 0.0
21/08:30am 8.5 6.6 5.1 79 1.6 ENE 4 13 2 7 - - 0.0
21/08:11am 7.7 4.8 4.8 82 1.4 E 9 15 5 8 - - 0.0
21/08:00am 8.1 5.4 5.6 84 1.2 ENE 9 13 5 7 - - 0.0
21/07:30am 6.0 4.0 4.3 89 0.8 SSE 4 11 2 6 - - 0.0
21/07:00am 4.2 2.0 3.2 93 0.4 ENE 4 9 2 5 - - 0.0
21/06:30am 3.2 1.6 2.3 94 0.4 CALM 0 4 0 2 - - 0.0
21/06:00am 3.0 0.2 2.1 94 0.4 E 6 7 3 4 - - 0.0
21/05:30am 3.0 1.4 2.3 95 0.3 CALM 0 0 0 0 - - 0.0
21/05:00am 3.7 2.2 3.1 96 0.3 CALM 0 0 0 0 - - 0.0
21/04:30am 3.7 0.9 3.0 95 0.3 E 7 11 4 6 - - 0.0
21/04:00am 3.8 1.9 2.9 94 0.4 ENE 2 7 1 4 - - 0.0
21/03:30am 4.0 1.3 2.8 92 0.5 E 6 9 3 5 - - 0.0
21/03:08am 4.6 2.4 3.4 92 0.5 ENE 4 11 2 6 - - 0.0
21/03:00am 4.9 2.4 3.7 92 0.5 E 6 11 3 6 - - 0.0
21/02:50am 5.2 3.5 4.0 92 0.5 ENE 2 7 1 4 - - 0.0
21/02:44am 5.2 3.5 4.0 92 0.5 ENE 2 9 1 5 - - 0.0
21/02:30am 5.3 2.8 4.0 91 0.6 E 6 9 3 5 - - 0.0
21/02:18am 5.4 3.3 4.1 91 0.6 E 4 9 2 5 - - 0.0
21/02:00am 5.7 4.1 4.3 91 0.6 SE 2 7 1 4 - - 0.0
21/01:30am 5.9 3.4 4.7 92 0.6 ESE 7 15 4 8 - - 0.0
21/01:00am 5.8 4.2 4.4 91 0.6 E 2 7 1 4 - - 0.0
21/12:54am 5.8 4.2 4.4 91 0.6 E 2 7 1 4 - - 0.0
21/12:48am 5.7 3.7 4.3 91 0.6 E 4 13 2 7 - - 0.0
21/12:30am 5.8 3.3 4.6 92 0.6 E 7 15 4 8 - - 0.0
21/12:00am 5.8 3.4 4.3 90 0.7 E 6 9 3 5 - - 0.0
 
Date/Time
EST
Tmp

°C
App
Tmp
°C
Dew
Point
°C
Rel
Hum
%
Delta-T

°C
Wind Press
QNH
hPa
Press
MSL
hPa
Rain
since
9 am
mm
Dir
 
Spd
km/h
Gust
km/h
Spd
kts
Gust
kts
20/11:30pm 6.0 3.6 4.3 89 0.8 ESE 6 9 3 5 - - 0.0
20/11:07pm 6.0 3.5 4.0 87 0.9 ENE 6 11 3 6 - - 0.0
20/11:00pm 5.9 3.4 3.9 87 0.9 E 6 11 3 6 - - 0.0
20/10:30pm 6.0 3.4 3.0 81 1.3 ENE 6 9 3 5 - - 0.0
20/10:00pm 6.1 3.4 2.7 79 1.5 E 6 11 3 6 - - 0.0
20/09:58pm 6.1 3.4 2.9 80 1.4 E 6 11 3 6 - - 0.0
20/09:30pm 6.2 3.1 3.4 82 1.3 E 9 13 5 7 - - 0.0
20/09:22pm 6.2 3.1 3.5 83 1.2 E 9 13 5 7 - - 0.0
20/09:12pm 6.2 3.1 3.5 83 1.2 E 9 19 5 10 - - 0.0
20/09:00pm 6.3 2.9 4.0 85 1.0 E 11 17 6 9 - - 0.0
20/08:30pm 5.9 2.9 4.1 88 0.8 E 9 19 5 10 - - 0.0
20/08:00pm 5.6 2.2 3.8 88 0.8 ENE 11 17 6 9 - - 0.0
20/07:31pm 5.9 2.5 4.1 88 0.8 ENE 11 19 6 10 - - 0.0
20/07:30pm 5.9 2.5 4.1 88 0.8 ENE 11 19 6 10 - - 0.0
20/07:00pm 6.1 2.7 3.9 86 1.0 ENE 11 19 6 10 - - 0.0
20/06:30pm 6.8 3.0 4.1 83 1.2 ENE 13 22 7 12 - - 0.0
20/06:00pm 7.7 4.3 4.1 78 1.7 E 11 19 6 10 - - 0.0
20/05:30pm 9.4 6.0 4.0 69 2.5 E 11 19 6 10 - - 0.0
20/05:00pm 11.5 8.1 4.0 60 3.6 E 11 22 6 12 - - 0.0
20/04:30pm 12.4 9.3 3.6 55 4.2 E 9 13 5 7 - - 0.0
20/04:00pm 11.7 8.5 3.0 55 4.1 E 9 17 5 9 - - 0.0
20/03:30pm 12.1 8.4 2.6 52 4.4 E 11 22 6 12 - - 0.0
20/03:00pm 13.1 9.9 3.2 51 4.7 ENE 9 15 5 8 - - 0.0
20/02:30pm 12.9 9.6 2.5 49 4.8 E 9 17 5 9 - - 0.0
20/02:00pm 14.6 11.6 4.3 50 5.1 NE 9 15 5 8 - - 0.0
20/01:30pm 13.2 10.1 3.6 52 4.6 E 9 15 5 8 - - 0.0
20/01:00pm 12.6 9.7 2.5 50 4.7 S 7 17 4 9 - - 0.0
20/12:30pm 11.1 8.7 2.2 54 4.1 SSE 4 9 2 5 - - 0.0
20/12:00pm 12.0 9.1 1.6 49 4.7 ENE 6 13 3 7 - - 0.0
20/11:30am 11.9 8.8 1.5 49 4.7 ENE 7 13 4 7 - - 0.0
20/11:00am 10.8 7.7 1.1 51 4.3 E 7 13 4 7 - - 0.0
20/10:30am 11.6 8.5 1.3 49 4.6 ESE 7 13 4 7 - - 0.0
20/10:00am 11.5 8.5 1.7 51 4.4 E 7 17 4 9 - - 0.0
20/09:30am 10.2 6.8 1.6 55 3.8 S 9 13 5 7 - - 0.0
20/09:00am 9.4 6.0 1.6 58 3.5 SSW 9 15 5 8 - - 0.0
20/08:30am 8.4 4.8 0.6 58 3.4 SSW 9 13 5 7 - - 0.0
20/08:00am 7.5 4.3 -0.2 58 3.2 SSW 6 9 3 5 - - 0.0
20/07:30am 6.6 2.8 -0.6 60 3.0 S 9 15 5 8 - - 0.0
20/07:00am 5.6 1.7 -1.3 61 2.8 S 9 11 5 6 - - 0.0
20/06:30am 4.7 1.4 -1.5 64 2.4 W 6 6 3 3 - - 0.0
20/06:00am 4.0 0.5 -1.0 70 2.0 W 7 9 4 5 - - 0.0
20/05:30am 4.2 0.8 -0.8 70 2.0 W 7 9 4 5 - - 0.0
20/05:00am 3.7 0.3 -0.7 73 1.7 W 7 9 4 5 - - 0.0
20/04:30am 3.7 0.3 -0.3 75 1.6 W 7 9 4 5 - - 0.0
20/04:00am 3.7 0.4 0.2 78 1.4 W 7 9 4 5 - - 0.0
20/03:30am 3.6 -0.1 0.1 78 1.4 W 9 9 5 5 - - 0.0
20/03:00am 3.3 -0.3 0.5 82 1.1 W 9 11 5 6 - - 0.0
20/02:30am 3.4 -0.6 0.6 82 1.1 W 11 13 6 7 - - 0.0
20/02:00am 3.8 -0.2 0.8 81 1.2 W 11 13 6 7 - - 0.0
20/01:30am 3.7 0.2 1.1 83 1.1 W 9 9 5 5 - - 0.0
20/01:00am 3.8 0.3 1.2 83 1.1 W 9 11 5 6 - - 0.0
20/12:30am 3.7 0.1 0.9 82 1.2 WNW 9 13 5 7 - - 0.0
20/12:00am 3.7 -0.3 0.6 80 1.3 W 11 13 6 7 - - 0.0
 
Date/Time
EST
Tmp

°C
App
Tmp
°C
Dew
Point
°C
Rel
Hum
%
Delta-T

°C
Wind Press
QNH
hPa
Press
MSL
hPa
Rain
since
9 am
mm
Dir
 
Spd
km/h
Gust
km/h
Spd
kts
Gust
kts
19/11:30pm 3.8 0.1 -0.2 75 1.6 W 9 11 5 6 - - 0.0
19/11:00pm 4.4 0.2 -0.8 69 2.1 W 11 13 6 7 - - 0.0
19/10:30pm 4.7 0.5 -1.1 66 2.3 W 11 13 6 7 - - 0.0
19/10:00pm 4.9 0.6 -1.5 63 2.5 W 11 13 6 7 - - 0.0
19/09:30pm 5.3 1.9 -1.8 60 2.8 W 6 9 3 5 - - 0.0
19/09:00pm 5.4 1.8 -2.0 59 2.9 W 7 11 4 6 - - 0.0
19/08:30pm 6.2 2.5 -2.9 52 3.5 WNW 7 7 4 4 - - 0.0
19/08:00pm 6.7 3.1 -3.5 48 3.9 WSW 6 9 3 5 - - 0.0
19/07:30pm 6.5 2.7 -3.7 48 3.9 W 7 11 4 6 - - 0.0
19/07:00pm 7.2 2.9 -4.8 42 4.5 W 9 11 5 6 - - 0.0
19/06:30pm 7.6 3.5 -6.5 36 5.1 W 7 9 4 5 - - 0.0
19/06:00pm 8.5 4.5 -7.6 31 5.7 W 6 9 3 5 - - 0.0
19/05:30pm 9.8 5.3 -6.5 31 6.0 SW 9 13 5 7 - - 0.0
19/05:00pm 10.6 5.9 -4.6 34 5.9 SW 11 15 6 8 - - 0.0
19/04:30pm 12.1 8.6 -2.9 35 6.2 W 6 11 3 6 - - 0.0
19/04:00pm 13.4 8.9 -2.9 32 6.8 WNW 11 17 6 9 - - 0.0
19/03:30pm 13.5 8.7 -2.8 32 6.8 W 13 24 7 13 - - 0.0
19/03:00pm 12.8 7.8 -1.5 37 6.1 WSW 15 22 8 12 - - 0.0
19/02:30pm 12.5 7.4 -2.1 36 6.1 W 15 22 8 12 - - 0.0
19/02:00pm 13.3 8.5 -2.6 33 6.7 SW 13 22 7 12 - - 0.0
19/01:30pm 12.0 6.4 -6.9 26 7.1 W 15 22 8 12 - - 0.0
19/01:00pm 11.6 6.5 -5.4 30 6.6 W 13 22 7 12 - - 0.0
19/12:30pm 11.2 6.2 -4.1 34 6.1 W 13 19 7 10 - - 0.0
19/12:00pm 10.8 6.4 -6.1 30 6.4 W 9 15 5 8 - - 0.0
19/11:30am 9.7 5.1 -3.9 38 5.3 WSW 11 19 6 10 - - 0.0
19/11:00am 9.7 4.9 -2.6 42 5.0 W 13 19 7 10 - - 0.0
19/10:30am 9.4 5.4 -2.2 44 4.7 WNW 9 13 5 7 - - 0.0

Latest Capital City Observations: Canberra | Sydney | Melbourne | Brisbane | Adelaide | Perth | Hobart | Darwin

Other Formats:

Comma delimited format used in spreadsheet applications
http://www.bom.gov.au/fwo/IDN60901/IDN60901.94743.axf

JavaScript Object Notation format (JSON) in row-major order
http://www.bom.gov.au/fwo/IDN60901/IDN60901.94743.json